sensor_id;sensor_type;location;lat;lon;timestamp;temperature;humidity
16412;DHT22;8315;52.104;6.304;2023-06-22T00:02:02;20.50;98.40
16412;DHT22;8315;52.104;6.304;2023-06-22T00:04:28;20.50;98.40
16412;DHT22;8315;52.104;6.304;2023-06-22T00:06:55;20.40;98.40
16412;DHT22;8315;52.104;6.304;2023-06-22T00:09:22;20.40;98.40
16412;DHT22;8315;52.104;6.304;2023-06-22T00:11:49;20.30;98.40
16412;DHT22;8315;52.104;6.304;2023-06-22T00:14:16;20.30;98.40
16412;DHT22;8315;52.104;6.304;2023-06-22T00:16:42;20.50;98.40
16412;DHT22;8315;52.104;6.304;2023-06-22T00:19:10;20.50;98.40
16412;DHT22;8315;52.104;6.304;2023-06-22T00:21:38;20.40;98.40
16412;DHT22;8315;52.104;6.304;2023-06-22T00:24:04;20.40;98.40
16412;DHT22;8315;52.104;6.304;2023-06-22T00:26:32;20.30;98.40
16412;DHT22;8315;52.104;6.304;2023-06-22T00:28:59;20.30;98.40
16412;DHT22;8315;52.104;6.304;2023-06-22T00:31:26;20.30;98.40
16412;DHT22;8315;52.104;6.304;2023-06-22T00:33:53;20.30;98.40
16412;DHT22;8315;52.104;6.304;2023-06-22T00:36:21;20.30;98.40
16412;DHT22;8315;52.104;6.304;2023-06-22T00:38:50;20.20;98.40
16412;DHT22;8315;52.104;6.304;2023-06-22T00:41:17;20.10;98.40
16412;DHT22;8315;52.104;6.304;2023-06-22T00:43:44;20.10;98.40
16412;DHT22;8315;52.104;6.304;2023-06-22T00:46:11;20.10;98.40
16412;DHT22;8315;52.104;6.304;2023-06-22T00:48:38;20.20;98.40
16412;DHT22;8315;52.104;6.304;2023-06-22T00:51:07;20.10;98.40
16412;DHT22;8315;52.104;6.304;2023-06-22T00:53:35;20.10;98.40
16412;DHT22;8315;52.104;6.304;2023-06-22T00:56:03;20.10;98.40
16412;DHT22;8315;52.104;6.304;2023-06-22T00:58:31;20.00;98.40
16412;DHT22;8315;52.104;6.304;2023-06-22T01:00:58;20.00;98.40
16412;DHT22;8315;52.104;6.304;2023-06-22T01:03:26;20.10;98.40
16412;DHT22;8315;52.104;6.304;2023-06-22T01:05:55;20.00;98.40
16412;DHT22;8315;52.104;6.304;2023-06-22T01:08:29;19.90;98.40
16412;DHT22;8315;52.104;6.304;2023-06-22T01:11:07;19.80;98.40
16412;DHT22;8315;52.104;6.304;2023-06-22T01:13:37;19.80;98.40
16412;DHT22;8315;52.104;6.304;2023-06-22T01:16:08;19.70;98.40
16412;DHT22;8315;52.104;6.304;2023-06-22T01:18:40;19.70;98.40
16412;DHT22;8315;52.104;6.304;2023-06-22T01:21:08;19.70;98.40
16412;DHT22;8315;52.104;6.304;2023-06-22T01:23:50;19.60;98.40
16412;DHT22;8315;52.104;6.304;2023-06-22T01:26:22;19.60;98.40
16412;DHT22;8315;52.104;6.304;2023-06-22T01:28:55;19.50;98.40
16412;DHT22;8315;52.104;6.304;2023-06-22T01:31:25;19.50;98.40
16412;DHT22;8315;52.104;6.304;2023-06-22T01:33:55;19.60;98.40
16412;DHT22;8315;52.104;6.304;2023-06-22T01:36:24;19.50;98.40
16412;DHT22;8315;52.104;6.304;2023-06-22T01:38:53;19.50;98.40
16412;DHT22;8315;52.104;6.304;2023-06-22T01:41:20;19.40;98.40
16412;DHT22;8315;52.104;6.304;2023-06-22T01:43:47;19.40;98.40
16412;DHT22;8315;52.104;6.304;2023-06-22T01:46:16;19.50;98.40
16412;DHT22;8315;52.104;6.304;2023-06-22T01:48:45;19.50;98.40
16412;DHT22;8315;52.104;6.304;2023-06-22T01:51:12;19.50;98.40
16412;DHT22;8315;52.104;6.304;2023-06-22T01:53:39;19.40;98.40
16412;DHT22;8315;52.104;6.304;2023-06-22T01:56:05;19.50;98.40
16412;DHT22;8315;52.104;6.304;2023-06-22T01:58:33;19.40;98.40
16412;DHT22;8315;52.104;6.304;2023-06-22T02:01:05;19.30;98.40
16412;DHT22;8315;52.104;6.304;2023-06-22T02:03:38;19.20;98.40
16412;DHT22;8315;52.104;6.304;2023-06-22T02:06:10;19.20;98.40
16412;DHT22;8315;52.104;6.304;2023-06-22T02:08:41;19.40;98.40
16412;DHT22;8315;52.104;6.304;2023-06-22T02:11:10;19.30;98.40
16412;DHT22;8315;52.104;6.304;2023-06-22T02:13:38;19.20;98.40
16412;DHT22;8315;52.104;6.304;2023-06-22T02:16:08;19.10;98.40
16412;DHT22;8315;52.104;6.304;2023-06-22T02:18:35;18.90;98.40
16412;DHT22;8315;52.104;6.304;2023-06-22T02:21:03;18.90;98.40
16412;DHT22;8315;52.104;6.304;2023-06-22T02:23:30;18.90;98.40
16412;DHT22;8315;52.104;6.304;2023-06-22T02:26:01;19.00;98.40
16412;DHT22;8315;52.104;6.304;2023-06-22T02:28:28;18.90;98.40
16412;DHT22;8315;52.104;6.304;2023-06-22T02:30:55;18.90;98.40
16412;DHT22;8315;52.104;6.304;2023-06-22T02:33:22;19.00;98.40
16412;DHT22;8315;52.104;6.304;2023-06-22T02:35:48;18.90;98.40
16412;DHT22;8315;52.104;6.304;2023-06-22T02:38:17;18.90;98.40
16412;DHT22;8315;52.104;6.304;2023-06-22T02:40:44;19.00;98.40
16412;DHT22;8315;52.104;6.304;2023-06-22T02:43:12;18.80;98.40
16412;DHT22;8315;52.104;6.304;2023-06-22T02:45:39;18.90;98.40
16412;DHT22;8315;52.104;6.304;2023-06-22T02:48:06;19.00;98.40
16412;DHT22;8315;52.104;6.304;2023-06-22T02:50:33;18.90;98.40
16412;DHT22;8315;52.104;6.304;2023-06-22T02:53:00;18.90;98.40
16412;DHT22;8315;52.104;6.304;2023-06-22T02:55:33;18.80;98.40
16412;DHT22;8315;52.104;6.304;2023-06-22T02:57:59;18.70;98.40
16412;DHT22;8315;52.104;6.304;2023-06-22T03:00:31;18.80;98.40
16412;DHT22;8315;52.104;6.304;2023-06-22T03:02:58;18.80;98.40
16412;DHT22;8315;52.104;6.304;2023-06-22T03:05:25;18.90;98.40
16412;DHT22;8315;52.104;6.304;2023-06-22T03:07:52;18.70;98.40
16412;DHT22;8315;52.104;6.304;2023-06-22T03:10:20;18.70;98.40
16412;DHT22;8315;52.104;6.304;2023-06-22T03:12:48;18.80;98.40
16412;DHT22;8315;52.104;6.304;2023-06-22T03:15:15;18.80;98.40
16412;DHT22;8315;52.104;6.304;2023-06-22T03:17:42;18.70;98.40
16412;DHT22;8315;52.104;6.304;2023-06-22T03:20:09;18.80;98.40
16412;DHT22;8315;52.104;6.304;2023-06-22T03:22:38;18.90;98.40
16412;DHT22;8315;52.104;6.304;2023-06-22T03:25:06;18.90;98.40
16412;DHT22;8315;52.104;6.304;2023-06-22T03:27:40;18.90;98.40
16412;DHT22;8315;52.104;6.304;2023-06-22T03:30:10;18.90;98.40
16412;DHT22;8315;52.104;6.304;2023-06-22T03:32:38;18.70;98.40
16412;DHT22;8315;52.104;6.304;2023-06-22T03:35:06;18.70;98.40
16412;DHT22;8315;52.104;6.304;2023-06-22T03:37:35;18.70;98.40
16412;DHT22;8315;52.104;6.304;2023-06-22T03:40:02;18.90;98.40
16412;DHT22;8315;52.104;6.304;2023-06-22T03:42:33;18.80;98.40
16412;DHT22;8315;52.104;6.304;2023-06-22T03:45:00;18.80;98.40
16412;DHT22;8315;52.104;6.304;2023-06-22T03:47:28;18.70;98.40
16412;DHT22;8315;52.104;6.304;2023-06-22T03:49:57;18.60;98.40
16412;DHT22;8315;52.104;6.304;2023-06-22T03:52:23;18.70;98.40
16412;DHT22;8315;52.104;6.304;2023-06-22T03:54:50;18.70;98.40
16412;DHT22;8315;52.104;6.304;2023-06-22T03:57:17;18.70;98.40
16412;DHT22;8315;52.104;6.304;2023-06-22T03:59:44;18.50;98.40
16412;DHT22;8315;52.104;6.304;2023-06-22T04:02:10;18.50;98.40
16412;DHT22;8315;52.104;6.304;2023-06-22T04:04:39;18.50;98.40
16412;DHT22;8315;52.104;6.304;2023-06-22T04:07:05;18.40;98.40
16412;DHT22;8315;52.104;6.304;2023-06-22T04:09:33;18.50;98.40
16412;DHT22;8315;52.104;6.304;2023-06-22T04:12:00;18.50;98.40
16412;DHT22;8315;52.104;6.304;2023-06-22T04:14:27;18.40;98.40
16412;DHT22;8315;52.104;6.304;2023-06-22T04:16:54;18.20;98.40
16412;DHT22;8315;52.104;6.304;2023-06-22T04:19:21;18.10;98.40
16412;DHT22;8315;52.104;6.304;2023-06-22T04:21:49;18.00;98.40
16412;DHT22;8315;52.104;6.304;2023-06-22T04:24:16;18.10;98.40
16412;DHT22;8315;52.104;6.304;2023-06-22T04:26:42;18.10;98.40
16412;DHT22;8315;52.104;6.304;2023-06-22T04:29:13;18.20;98.40
16412;DHT22;8315;52.104;6.304;2023-06-22T04:31:40;18.30;98.40
16412;DHT22;8315;52.104;6.304;2023-06-22T04:34:07;18.30;98.40
16412;DHT22;8315;52.104;6.304;2023-06-22T04:36:34;18.20;98.40
16412;DHT22;8315;52.104;6.304;2023-06-22T04:39:06;18.40;98.40
16412;DHT22;8315;52.104;6.304;2023-06-22T04:41:34;18.40;98.40
16412;DHT22;8315;52.104;6.304;2023-06-22T04:44:08;18.50;98.40
16412;DHT22;8315;52.104;6.304;2023-06-22T04:46:35;18.60;98.40
16412;DHT22;8315;52.104;6.304;2023-06-22T04:49:07;18.50;98.40
16412;DHT22;8315;52.104;6.304;2023-06-22T04:51:36;18.50;98.40
16412;DHT22;8315;52.104;6.304;2023-06-22T04:54:06;18.60;98.40
16412;DHT22;8315;52.104;6.304;2023-06-22T04:56:32;18.70;98.40
16412;DHT22;8315;52.104;6.304;2023-06-22T04:59:00;18.80;98.40
16412;DHT22;8315;52.104;6.304;2023-06-22T05:01:28;18.90;98.40
16412;DHT22;8315;52.104;6.304;2023-06-22T05:03:56;19.00;98.40
16412;DHT22;8315;52.104;6.304;2023-06-22T05:06:26;18.90;98.40
16412;DHT22;8315;52.104;6.304;2023-06-22T05:08:53;18.90;98.40
16412;DHT22;8315;52.104;6.304;2023-06-22T05:11:24;18.90;98.40
16412;DHT22;8315;52.104;6.304;2023-06-22T05:13:51;18.90;98.40
16412;DHT22;8315;52.104;6.304;2023-06-22T05:16:18;18.90;98.40
16412;DHT22;8315;52.104;6.304;2023-06-22T05:18:49;19.00;98.40
16412;DHT22;8315;52.104;6.304;2023-06-22T05:21:23;19.10;98.40
16412;DHT22;8315;52.104;6.304;2023-06-22T05:23:51;19.30;98.40
16412;DHT22;8315;52.104;6.304;2023-06-22T05:26:18;19.30;98.40
16412;DHT22;8315;52.104;6.304;2023-06-22T05:28:47;19.20;98.40
16412;DHT22;8315;52.104;6.304;2023-06-22T05:31:14;19.30;98.40
16412;DHT22;8315;52.104;6.304;2023-06-22T05:33:42;19.40;98.40
16412;DHT22;8315;52.104;6.304;2023-06-22T05:36:10;19.40;98.40
16412;DHT22;8315;52.104;6.304;2023-06-22T05:38:38;19.40;98.40
16412;DHT22;8315;52.104;6.304;2023-06-22T05:41:05;19.60;98.40
16412;DHT22;8315;52.104;6.304;2023-06-22T05:43:32;19.60;98.40
16412;DHT22;8315;52.104;6.304;2023-06-22T05:46:01;19.60;98.40
16412;DHT22;8315;52.104;6.304;2023-06-22T05:48:28;19.60;98.40
16412;DHT22;8315;52.104;6.304;2023-06-22T05:50:54;19.60;98.40
16412;DHT22;8315;52.104;6.304;2023-06-22T05:53:21;19.70;98.40
16412;DHT22;8315;52.104;6.304;2023-06-22T05:55:48;19.60;98.40
16412;DHT22;8315;52.104;6.304;2023-06-22T05:58:15;19.70;98.40
16412;DHT22;8315;52.104;6.304;2023-06-22T06:00:42;19.70;98.40
16412;DHT22;8315;52.104;6.304;2023-06-22T06:03:10;19.70;98.40
16412;DHT22;8315;52.104;6.304;2023-06-22T06:05:37;19.70;98.40
16412;DHT22;8315;52.104;6.304;2023-06-22T06:08:05;19.80;98.40
16412;DHT22;8315;52.104;6.304;2023-06-22T06:10:32;19.90;98.40
16412;DHT22;8315;52.104;6.304;2023-06-22T06:12:59;20.00;98.40
16412;DHT22;8315;52.104;6.304;2023-06-22T06:15:29;20.20;98.40
16412;DHT22;8315;52.104;6.304;2023-06-22T06:17:56;20.30;98.40
16412;DHT22;8315;52.104;6.304;2023-06-22T06:20:25;20.40;98.40
16412;DHT22;8315;52.104;6.304;2023-06-22T06:22:53;20.40;98.40
16412;DHT22;8315;52.104;6.304;2023-06-22T06:25:20;20.40;98.40
16412;DHT22;8315;52.104;6.304;2023-06-22T06:27:47;20.50;98.40
16412;DHT22;8315;52.104;6.304;2023-06-22T06:30:16;20.60;98.40
16412;DHT22;8315;52.104;6.304;2023-06-22T06:32:44;20.70;98.40
16412;DHT22;8315;52.104;6.304;2023-06-22T06:35:12;20.80;98.40
16412;DHT22;8315;52.104;6.304;2023-06-22T06:37:42;20.80;98.40
16412;DHT22;8315;52.104;6.304;2023-06-22T06:40:10;21.00;98.40
16412;DHT22;8315;52.104;6.304;2023-06-22T06:42:37;21.00;98.40
16412;DHT22;8315;52.104;6.304;2023-06-22T06:45:06;21.00;98.40
16412;DHT22;8315;52.104;6.304;2023-06-22T06:47:33;21.10;98.40
16412;DHT22;8315;52.104;6.304;2023-06-22T06:50:00;21.30;98.40
16412;DHT22;8315;52.104;6.304;2023-06-22T06:52:26;21.50;98.40
16412;DHT22;8315;52.104;6.304;2023-06-22T06:54:55;21.60;98.40
16412;DHT22;8315;52.104;6.304;2023-06-22T06:57:22;21.60;98.40
16412;DHT22;8315;52.104;6.304;2023-06-22T06:59:49;21.60;98.40
16412;DHT22;8315;52.104;6.304;2023-06-22T07:02:16;21.60;98.40
16412;DHT22;8315;52.104;6.304;2023-06-22T07:04:43;21.60;98.40
16412;DHT22;8315;52.104;6.304;2023-06-22T07:07:10;21.60;98.40
16412;DHT22;8315;52.104;6.304;2023-06-22T07:09:36;21.70;98.40
16412;DHT22;8315;52.104;6.304;2023-06-22T07:12:05;21.70;98.40
16412;DHT22;8315;52.104;6.304;2023-06-22T07:14:33;21.70;98.40
16412;DHT22;8315;52.104;6.304;2023-06-22T07:16:59;21.90;98.40
16412;DHT22;8315;52.104;6.304;2023-06-22T07:19:26;21.90;98.40
16412;DHT22;8315;52.104;6.304;2023-06-22T07:21:54;21.90;98.40
16412;DHT22;8315;52.104;6.304;2023-06-22T07:24:21;21.90;98.40
16412;DHT22;8315;52.104;6.304;2023-06-22T07:26:48;21.90;98.40
16412;DHT22;8315;52.104;6.304;2023-06-22T07:29:16;22.10;98.40
16412;DHT22;8315;52.104;6.304;2023-06-22T07:31:44;22.20;98.40
16412;DHT22;8315;52.104;6.304;2023-06-22T07:34:11;22.30;98.40
16412;DHT22;8315;52.104;6.304;2023-06-22T07:36:38;22.30;98.40
16412;DHT22;8315;52.104;6.304;2023-06-22T07:39:05;22.50;98.40
16412;DHT22;8315;52.104;6.304;2023-06-22T07:41:31;22.70;98.40
16412;DHT22;8315;52.104;6.304;2023-06-22T07:43:58;22.80;98.40
16412;DHT22;8315;52.104;6.304;2023-06-22T07:46:26;22.80;98.40
16412;DHT22;8315;52.104;6.304;2023-06-22T07:48:55;22.90;98.40
16412;DHT22;8315;52.104;6.304;2023-06-22T07:51:22;23.00;98.40
16412;DHT22;8315;52.104;6.304;2023-06-22T07:53:49;23.10;98.40
16412;DHT22;8315;52.104;6.304;2023-06-22T07:56:16;23.30;98.40
16412;DHT22;8315;52.104;6.304;2023-06-22T07:58:44;23.30;98.40
16412;DHT22;8315;52.104;6.304;2023-06-22T08:01:11;23.40;98.40
16412;DHT22;8315;52.104;6.304;2023-06-22T08:03:39;23.30;98.40
16412;DHT22;8315;52.104;6.304;2023-06-22T08:06:07;23.30;98.40
16412;DHT22;8315;52.104;6.304;2023-06-22T08:08:35;23.30;98.40
16412;DHT22;8315;52.104;6.304;2023-06-22T08:11:02;23.30;98.40
16412;DHT22;8315;52.104;6.304;2023-06-22T08:13:28;23.30;98.40
16412;DHT22;8315;52.104;6.304;2023-06-22T08:15:55;23.40;98.40
16412;DHT22;8315;52.104;6.304;2023-06-22T08:18:22;23.40;98.40
16412;DHT22;8315;52.104;6.304;2023-06-22T08:20:50;23.40;98.40
16412;DHT22;8315;52.104;6.304;2023-06-22T08:23:17;23.40;98.40
16412;DHT22;8315;52.104;6.304;2023-06-22T08:25:44;23.50;98.40
16412;DHT22;8315;52.104;6.304;2023-06-22T08:28:10;23.70;98.40
16412;DHT22;8315;52.104;6.304;2023-06-22T08:30:38;23.90;98.40
16412;DHT22;8315;52.104;6.304;2023-06-22T08:33:05;24.00;98.40
16412;DHT22;8315;52.104;6.304;2023-06-22T08:35:32;24.20;98.40
16412;DHT22;8315;52.104;6.304;2023-06-22T08:38:00;24.30;98.40
16412;DHT22;8315;52.104;6.304;2023-06-22T08:40:27;24.30;98.40
16412;DHT22;8315;52.104;6.304;2023-06-22T08:42:54;24.40;98.40
16412;DHT22;8315;52.104;6.304;2023-06-22T08:45:21;24.60;98.40
16412;DHT22;8315;52.104;6.304;2023-06-22T08:47:48;24.70;98.40
16412;DHT22;8315;52.104;6.304;2023-06-22T08:50:15;24.80;98.40
16412;DHT22;8315;52.104;6.304;2023-06-22T08:52:42;24.90;98.40
16412;DHT22;8315;52.104;6.304;2023-06-22T08:55:10;25.00;98.40
16412;DHT22;8315;52.104;6.304;2023-06-22T08:57:37;25.00;98.40
16412;DHT22;8315;52.104;6.304;2023-06-22T09:00:05;24.90;97.10
16412;DHT22;8315;52.104;6.304;2023-06-22T09:02:41;24.90;96.80
16412;DHT22;8315;52.104;6.304;2023-06-22T09:05:08;25.00;95.70
16412;DHT22;8315;52.104;6.304;2023-06-22T09:07:35;25.00;96.70
16412;DHT22;8315;52.104;6.304;2023-06-22T09:10:02;25.20;96.40
16412;DHT22;8315;52.104;6.304;2023-06-22T09:12:32;25.40;95.40
16412;DHT22;8315;52.104;6.304;2023-06-22T09:14:59;25.40;94.70
16412;DHT22;8315;52.104;6.304;2023-06-22T09:17:26;25.50;94.90
16412;DHT22;8315;52.104;6.304;2023-06-22T09:19:53;25.40;93.90
16412;DHT22;8315;52.104;6.304;2023-06-22T09:22:20;25.30;93.80
16412;DHT22;8315;52.104;6.304;2023-06-22T09:24:47;25.30;94.80
16412;DHT22;8315;52.104;6.304;2023-06-22T09:27:14;25.30;94.70
16412;DHT22;8315;52.104;6.304;2023-06-22T09:29:42;25.30;94.30
16412;DHT22;8315;52.104;6.304;2023-06-22T09:32:08;25.20;93.60
16412;DHT22;8315;52.104;6.304;2023-06-22T09:34:35;25.20;93.30
16412;DHT22;8315;52.104;6.304;2023-06-22T09:37:02;25.30;93.50
16412;DHT22;8315;52.104;6.304;2023-06-22T09:39:29;25.20;93.60
16412;DHT22;8315;52.104;6.304;2023-06-22T09:41:57;25.30;93.80
16412;DHT22;8315;52.104;6.304;2023-06-22T09:44:24;25.30;94.40
16412;DHT22;8315;52.104;6.304;2023-06-22T09:46:52;25.40;94.20
16412;DHT22;8315;52.104;6.304;2023-06-22T09:49:19;25.30;93.30
16412;DHT22;8315;52.104;6.304;2023-06-22T09:51:46;25.20;94.10
16412;DHT22;8315;52.104;6.304;2023-06-22T09:54:15;25.30;94.50
16412;DHT22;8315;52.104;6.304;2023-06-22T09:56:41;25.20;94.50
16412;DHT22;8315;52.104;6.304;2023-06-22T09:59:08;25.10;94.70
16412;DHT22;8315;52.104;6.304;2023-06-22T10:01:35;25.20;95.60
16412;DHT22;8315;52.104;6.304;2023-06-22T10:04:03;25.20;96.10
16412;DHT22;8315;52.104;6.304;2023-06-22T10:06:30;25.30;96.50
16412;DHT22;8315;52.104;6.304;2023-06-22T10:08:57;25.30;96.20
16412;DHT22;8315;52.104;6.304;2023-06-22T10:11:23;25.30;95.90
16412;DHT22;8315;52.104;6.304;2023-06-22T10:13:54;25.20;96.10
16412;DHT22;8315;52.104;6.304;2023-06-22T10:16:21;25.20;96.90
16412;DHT22;8315;52.104;6.304;2023-06-22T10:18:48;25.10;96.40
16412;DHT22;8315;52.104;6.304;2023-06-22T10:21:16;25.10;97.30
16412;DHT22;8315;52.104;6.304;2023-06-22T10:23:43;25.00;97.70
16412;DHT22;8315;52.104;6.304;2023-06-22T10:26:09;25.00;97.80
16412;DHT22;8315;52.104;6.304;2023-06-22T10:28:36;25.10;98.20
16412;DHT22;8315;52.104;6.304;2023-06-22T10:31:03;25.00;97.80
16412;DHT22;8315;52.104;6.304;2023-06-22T10:33:30;25.00;97.80
16412;DHT22;8315;52.104;6.304;2023-06-22T10:35:56;25.00;97.80
16412;DHT22;8315;52.104;6.304;2023-06-22T10:38:24;25.00;97.50
16412;DHT22;8315;52.104;6.304;2023-06-22T10:40:51;25.00;97.40
16412;DHT22;8315;52.104;6.304;2023-06-22T10:43:18;25.00;97.40
16412;DHT22;8315;52.104;6.304;2023-06-22T10:45:45;25.00;97.80
16412;DHT22;8315;52.104;6.304;2023-06-22T10:48:12;25.00;97.80
16412;DHT22;8315;52.104;6.304;2023-06-22T10:50:38;25.00;97.90
16412;DHT22;8315;52.104;6.304;2023-06-22T10:53:05;25.10;97.80
16412;DHT22;8315;52.104;6.304;2023-06-22T10:55:33;25.00;97.00
16412;DHT22;8315;52.104;6.304;2023-06-22T10:58:00;24.90;97.00
16412;DHT22;8315;52.104;6.304;2023-06-22T11:00:27;24.90;96.90
16412;DHT22;8315;52.104;6.304;2023-06-22T11:02:54;24.90;97.30
16412;DHT22;8315;52.104;6.304;2023-06-22T11:05:21;24.90;96.90
16412;DHT22;8315;52.104;6.304;2023-06-22T11:07:48;24.80;97.40
16412;DHT22;8315;52.104;6.304;2023-06-22T11:10:15;24.80;98.20
16412;DHT22;8315;52.104;6.304;2023-06-22T11:12:43;24.90;98.40
16412;DHT22;8315;52.104;6.304;2023-06-22T11:15:10;24.90;98.20
16412;DHT22;8315;52.104;6.304;2023-06-22T11:17:37;24.90;97.60
16412;DHT22;8315;52.104;6.304;2023-06-22T11:20:04;25.00;97.00
16412;DHT22;8315;52.104;6.304;2023-06-22T11:22:36;25.00;98.10
16412;DHT22;8315;52.104;6.304;2023-06-22T11:25:04;24.90;97.50
16412;DHT22;8315;52.104;6.304;2023-06-22T11:27:32;24.90;97.00
16412;DHT22;8315;52.104;6.304;2023-06-22T11:30:00;24.80;97.00
16412;DHT22;8315;52.104;6.304;2023-06-22T11:32:27;24.90;97.10
16412;DHT22;8315;52.104;6.304;2023-06-22T11:34:53;24.90;97.40
16412;DHT22;8315;52.104;6.304;2023-06-22T11:37:20;24.90;97.40
16412;DHT22;8315;52.104;6.304;2023-06-22T11:39:47;24.90;97.00
16412;DHT22;8315;52.104;6.304;2023-06-22T11:42:14;24.80;97.20
16412;DHT22;8315;52.104;6.304;2023-06-22T11:44:41;24.80;98.00
16412;DHT22;8315;52.104;6.304;2023-06-22T11:47:09;24.80;98.30
16412;DHT22;8315;52.104;6.304;2023-06-22T11:49:36;24.80;98.40
16412;DHT22;8315;52.104;6.304;2023-06-22T11:52:03;24.80;97.90
16412;DHT22;8315;52.104;6.304;2023-06-22T11:54:30;24.80;98.40
16412;DHT22;8315;52.104;6.304;2023-06-22T11:56:57;24.80;98.20
16412;DHT22;8315;52.104;6.304;2023-06-22T11:59:24;24.70;98.40
16412;DHT22;8315;52.104;6.304;2023-06-22T12:01:51;24.70;98.30
16412;DHT22;8315;52.104;6.304;2023-06-22T12:04:19;24.60;98.10
16412;DHT22;8315;52.104;6.304;2023-06-22T12:06:46;24.60;98.30
16412;DHT22;8315;52.104;6.304;2023-06-22T12:09:13;24.60;98.20
16412;DHT22;8315;52.104;6.304;2023-06-22T12:11:40;24.60;98.00
16412;DHT22;8315;52.104;6.304;2023-06-22T12:14:07;24.50;98.30
16412;DHT22;8315;52.104;6.304;2023-06-22T12:16:33;24.50;98.40
16412;DHT22;8315;52.104;6.304;2023-06-22T12:19:00;24.40;98.40
16412;DHT22;8315;52.104;6.304;2023-06-22T12:21:28;24.30;98.40
16412;DHT22;8315;52.104;6.304;2023-06-22T12:23:55;24.20;98.40
16412;DHT22;8315;52.104;6.304;2023-06-22T12:26:22;24.20;98.40
16412;DHT22;8315;52.104;6.304;2023-06-22T12:28:48;24.20;98.40
16412;DHT22;8315;52.104;6.304;2023-06-22T12:31:15;24.00;98.40
16412;DHT22;8315;52.104;6.304;2023-06-22T12:33:42;23.90;98.40
16412;DHT22;8315;52.104;6.304;2023-06-22T12:36:09;23.80;98.40
16412;DHT22;8315;52.104;6.304;2023-06-22T12:38:37;23.90;98.40
16412;DHT22;8315;52.104;6.304;2023-06-22T12:41:03;23.80;98.40
16412;DHT22;8315;52.104;6.304;2023-06-22T12:43:30;23.70;98.40
16412;DHT22;8315;52.104;6.304;2023-06-22T12:45:57;23.60;98.40
16412;DHT22;8315;52.104;6.304;2023-06-22T12:48:25;23.50;98.40
16412;DHT22;8315;52.104;6.304;2023-06-22T12:50:52;23.30;98.40
16412;DHT22;8315;52.104;6.304;2023-06-22T12:53:19;23.10;98.40
16412;DHT22;8315;52.104;6.304;2023-06-22T12:55:49;23.20;98.40
16412;DHT22;8315;52.104;6.304;2023-06-22T12:58:16;23.20;98.40
16412;DHT22;8315;52.104;6.304;2023-06-22T13:00:43;23.20;98.40
16412;DHT22;8315;52.104;6.304;2023-06-22T13:03:10;23.10;98.40
16412;DHT22;8315;52.104;6.304;2023-06-22T13:05:36;22.90;98.40
16412;DHT22;8315;52.104;6.304;2023-06-22T13:08:03;23.00;98.40
16412;DHT22;8315;52.104;6.304;2023-06-22T13:10:30;23.10;98.40
16412;DHT22;8315;52.104;6.304;2023-06-22T13:12:58;23.10;98.40
16412;DHT22;8315;52.104;6.304;2023-06-22T13:15:27;23.10;98.40
16412;DHT22;8315;52.104;6.304;2023-06-22T13:17:54;23.10;98.40
16412;DHT22;8315;52.104;6.304;2023-06-22T13:20:21;23.00;98.40
16412;DHT22;8315;52.104;6.304;2023-06-22T13:22:48;23.00;98.40
16412;DHT22;8315;52.104;6.304;2023-06-22T13:25:14;23.00;98.40
16412;DHT22;8315;52.104;6.304;2023-06-22T13:27:44;22.80;98.40
16412;DHT22;8315;52.104;6.304;2023-06-22T13:30:12;22.80;98.40
16412;DHT22;8315;52.104;6.304;2023-06-22T13:32:39;22.80;98.40
16412;DHT22;8315;52.104;6.304;2023-06-22T13:35:07;22.80;98.40
16412;DHT22;8315;52.104;6.304;2023-06-22T13:37:35;22.80;98.40
16412;DHT22;8315;52.104;6.304;2023-06-22T13:40:02;22.90;98.40
16412;DHT22;8315;52.104;6.304;2023-06-22T13:42:31;22.60;98.40
16412;DHT22;8315;52.104;6.304;2023-06-22T13:44:58;22.60;98.40
16412;DHT22;8315;52.104;6.304;2023-06-22T13:47:26;22.30;98.40
16412;DHT22;8315;52.104;6.304;2023-06-22T13:49:53;22.40;98.40
16412;DHT22;8315;52.104;6.304;2023-06-22T13:52:20;22.20;98.40
16412;DHT22;8315;52.104;6.304;2023-06-22T13:54:47;22.10;98.40
16412;DHT22;8315;52.104;6.304;2023-06-22T13:57:14;22.20;98.40
16412;DHT22;8315;52.104;6.304;2023-06-22T13:59:41;22.20;98.40
16412;DHT22;8315;52.104;6.304;2023-06-22T14:02:07;22.20;98.40
16412;DHT22;8315;52.104;6.304;2023-06-22T14:04:36;22.30;98.40
16412;DHT22;8315;52.104;6.304;2023-06-22T14:07:02;22.40;98.40
16412;DHT22;8315;52.104;6.304;2023-06-22T14:09:29;22.40;98.40
16412;DHT22;8315;52.104;6.304;2023-06-22T14:11:56;22.40;98.40
16412;DHT22;8315;52.104;6.304;2023-06-22T14:14:23;22.40;98.40
16412;DHT22;8315;52.104;6.304;2023-06-22T14:16:50;22.20;98.40
16412;DHT22;8315;52.104;6.304;2023-06-22T14:19:17;22.20;98.40
16412;DHT22;8315;52.104;6.304;2023-06-22T14:21:45;22.30;98.40
16412;DHT22;8315;52.104;6.304;2023-06-22T14:24:12;22.20;98.40
16412;DHT22;8315;52.104;6.304;2023-06-22T14:26:39;22.00;98.40
16412;DHT22;8315;52.104;6.304;2023-06-22T14:29:06;22.00;98.40
16412;DHT22;8315;52.104;6.304;2023-06-22T14:31:32;22.00;98.40
16412;DHT22;8315;52.104;6.304;2023-06-22T14:33:59;22.10;98.40
16412;DHT22;8315;52.104;6.304;2023-06-22T14:36:26;21.90;98.40
16412;DHT22;8315;52.104;6.304;2023-06-22T14:38:54;22.00;98.40
16412;DHT22;8315;52.104;6.304;2023-06-22T14:41:21;22.00;98.40
16412;DHT22;8315;52.104;6.304;2023-06-22T14:43:48;22.00;98.40
16412;DHT22;8315;52.104;6.304;2023-06-22T14:46:17;22.00;98.40
16412;DHT22;8315;52.104;6.304;2023-06-22T14:48:44;22.10;98.40
16412;DHT22;8315;52.104;6.304;2023-06-22T14:51:11;22.10;98.40
16412;DHT22;8315;52.104;6.304;2023-06-22T14:53:38;22.10;98.40
16412;DHT22;8315;52.104;6.304;2023-06-22T14:56:06;22.10;98.40
16412;DHT22;8315;52.104;6.304;2023-06-22T14:58:33;22.10;98.40
16412;DHT22;8315;52.104;6.304;2023-06-22T15:01:01;22.10;98.40
16412;DHT22;8315;52.104;6.304;2023-06-22T15:03:28;22.20;98.40
16412;DHT22;8315;52.104;6.304;2023-06-22T15:05:56;22.20;98.40
16412;DHT22;8315;52.104;6.304;2023-06-22T15:08:23;22.10;98.40
16412;DHT22;8315;52.104;6.304;2023-06-22T15:10:51;22.10;98.40
16412;DHT22;8315;52.104;6.304;2023-06-22T15:13:20;22.00;98.40
16412;DHT22;8315;52.104;6.304;2023-06-22T15:15:47;22.00;98.40
16412;DHT22;8315;52.104;6.304;2023-06-22T15:18:15;22.00;98.40
16412;DHT22;8315;52.104;6.304;2023-06-22T15:20:42;22.00;98.40
16412;DHT22;8315;52.104;6.304;2023-06-22T15:23:11;21.90;98.40
16412;DHT22;8315;52.104;6.304;2023-06-22T15:25:37;22.00;98.40
16412;DHT22;8315;52.104;6.304;2023-06-22T15:28:04;21.90;98.40
16412;DHT22;8315;52.104;6.304;2023-06-22T15:30:32;21.80;98.40
16412;DHT22;8315;52.104;6.304;2023-06-22T15:33:00;21.80;98.40
16412;DHT22;8315;52.104;6.304;2023-06-22T15:35:26;21.70;98.40
16412;DHT22;8315;52.104;6.304;2023-06-22T15:37:53;21.50;98.40
16412;DHT22;8315;52.104;6.304;2023-06-22T15:40:20;21.50;98.40
16412;DHT22;8315;52.104;6.304;2023-06-22T15:42:49;21.30;98.40
16412;DHT22;8315;52.104;6.304;2023-06-22T15:45:16;21.30;98.40
16412;DHT22;8315;52.104;6.304;2023-06-22T15:47:44;21.20;98.40